Facebook Twitter

Wetterstation Meppen

Messwerte
  Temperatur Wetter Niederschlag Luftdruck Wind
Sa, 01:20 Uhr 13° - - 1021 hPa 3 km/h SW
Sa, 01:00 Uhr 14° - - 1021.5 hPa 7 km/h N
Sa, 00:20 Uhr 14° - - 1021 hPa 3 km/h
Sa, 00:00 Uhr 15° - - 1021 hPa 7 km/h SW
Fr, 23:20 Uhr 15° - - 1020 hPa 5 km/h SW
Fr, 23:00 Uhr 15° - - 1020.4 hPa 7 km/h SW
Fr, 22:20 Uhr 16° - - 1020 hPa 5 km/h SW
Fr, 22:00 Uhr 17° - - 1019.6 hPa 7 km/h SW
Fr, 21:20 Uhr 18° - - 1019 hPa 5 km/h SW
Fr, 21:00 Uhr 19° - - 1018.9 hPa 11 km/h SW
Fr, 20:20 Uhr 19° - - 1018 hPa 14 km/h W
Fr, 20:00 Uhr 20° - 0.1 mm 1018.6 hPa 11 km/h W
Fr, 19:20 Uhr 20° - - 1018 hPa 13 km/h W
Fr, 19:00 Uhr 21° - - 1018 hPa 18 km/h W

Böen 40 km/h
Fr, 18:20 Uhr 22° - - 1017 hPa 13 km/h W
Fr, 18:00 Uhr 21° - - 1017.6 hPa 18 km/h SW
Fr, 17:20 Uhr 21° - - 1017 hPa 13 km/h SW

Böen 34 km/h
Fr, 17:00 Uhr 20° - - 1017.5 hPa 14 km/h SW
Fr, 16:20 Uhr 20° - - 1017 hPa 13 km/h SW
Fr, 16:00 Uhr 20° - - 1017.1 hPa 14 km/h SW

Alle Zeitangaben MESZ